createdAt,value
2022-10-17T00:00:07.967Z,20.31
2022-10-17T00:01:10.596Z,20.29
2022-10-17T00:02:23.999Z,20.32
2022-10-17T00:03:36.457Z,20.31
2022-10-17T00:04:49.508Z,20.31
2022-10-17T00:05:52.030Z,20.32
2022-10-17T00:07:05.467Z,20.31
2022-10-17T00:08:17.910Z,20.32
2022-10-17T00:09:20.998Z,20.29
2022-10-17T00:10:33.493Z,20.32
2022-10-17T00:11:46.487Z,20.29
2022-10-17T00:12:58.948Z,20.31
2022-10-17T00:14:02.509Z,20.28
2022-10-17T00:15:14.946Z,20.28
2022-10-17T00:16:28.005Z,20.29
2022-10-17T00:17:40.456Z,20.28
2022-10-17T00:18:43.992Z,20.27
2022-10-17T00:20:16.334Z,20.25
2022-10-17T00:21:49.585Z,20.27
2022-10-17T00:22:12.442Z,20.27
2022-10-17T00:23:24.863Z,20.28
2022-10-17T00:24:37.977Z,20.31
2022-10-17T00:25:50.531Z,20.31
2022-10-17T00:26:54.013Z,20.34
2022-10-17T00:28:06.450Z,20.29
2022-10-17T00:29:19.493Z,20.34
2022-10-17T00:30:21.998Z,20.32
2022-10-17T00:31:35.502Z,20.34
2022-10-17T00:32:47.965Z,20.32
2022-10-17T00:34:01.024Z,20.32
2022-10-17T00:35:03.566Z,20.31
2022-10-17T00:36:17.048Z,20.31
2022-10-17T00:37:29.534Z,20.29
2022-10-17T00:38:43.029Z,20.29
2022-10-17T00:39:45.582Z,20.28
2022-10-17T00:40:59.026Z,20.28
2022-10-17T00:42:11.492Z,20.29
2022-10-17T00:43:14.991Z,20.29
2022-10-17T00:44:27.425Z,20.27
2022-10-17T00:45:40.504Z,20.28
2022-10-17T00:46:43.026Z,20.25
2022-10-17T00:47:56.563Z,20.25
2022-10-17T00:49:09.027Z,20.28
2022-10-17T00:50:23.022Z,20.27
2022-10-17T00:51:25.619Z,20.25
2022-10-17T00:52:39.030Z,20.25
2022-10-17T00:53:51.471Z,20.24
2022-10-17T00:54:55.119Z,20.27
2022-10-17T00:56:07.571Z,20.24
2022-10-17T00:57:21.033Z,20.25
2022-10-17T00:58:23.613Z,20.22
2022-10-17T00:59:36.987Z,20.22
2022-10-17T01:00:49.447Z,20.22
2022-10-17T01:02:02.516Z,20.27
2022-10-17T01:03:05.059Z,20.25
2022-10-17T01:04:18.526Z,20.24
2022-10-17T01:05:31.130Z,20.21
2022-10-17T01:06:34.520Z,20.22
2022-10-17T01:07:47.056Z,20.22
2022-10-17T01:09:00.538Z,20.21
2022-10-17T01:10:32.883Z,20.21
2022-10-17T01:11:16.531Z,20.22
2022-10-17T01:12:29.218Z,20.22
2022-10-17T01:13:43.000Z,20.24
2022-10-17T01:14:45.647Z,20.22
2022-10-17T01:15:59.029Z,20.25
2022-10-17T01:17:11.654Z,20.21
2022-10-17T01:18:15.011Z,20.24
2022-10-17T01:19:27.458Z,20.24
2022-10-17T01:20:40.529Z,20.25
2022-10-17T01:21:52.974Z,20.24
2022-10-17T01:22:56.576Z,20.22
2022-10-17T01:24:09.259Z,20.21
2022-10-17T01:25:22.500Z,20.22
2022-10-17T01:26:25.050Z,20.22
2022-10-17T01:27:38.506Z,20.22
2022-10-17T01:28:50.970Z,20.22
2022-10-17T01:29:54.565Z,20.19
2022-10-17T01:31:07.174Z,20.21
2022-10-17T01:32:20.543Z,20.21
2022-10-17T01:33:33.056Z,20.18
2022-10-17T01:34:36.548Z,20.19
2022-10-17T01:35:49.002Z,20.19
2022-10-17T01:37:01.997Z,20.18
2022-10-17T01:38:04.596Z,20.19
2022-10-17T01:39:18.015Z,20.18
2022-10-17T01:40:30.478Z,20.18
2022-10-17T01:41:44.100Z,20.21
2022-10-17T01:42:46.737Z,20.19
2022-10-17T01:44:00.003Z,20.21
2022-10-17T01:45:12.455Z,20.18
2022-10-17T01:46:16.022Z,20.19
2022-10-17T01:47:28.659Z,20.19
2022-10-17T01:48:42.540Z,20.18
2022-10-17T01:50:14.953Z,20.15
2022-10-17T01:50:58.514Z,20.19
2022-10-17T01:52:10.963Z,20.21
2022-10-17T01:53:24.078Z,20.21
2022-10-17T01:54:26.628Z,20.22
2022-10-17T01:55:40.044Z,20.22
2022-10-17T01:56:52.478Z,20.24
2022-10-17T01:57:56.069Z,20.21
2022-10-17T01:59:08.551Z,20.22
2022-10-17T02:00:22.074Z,20.25
2022-10-17T02:01:24.689Z,20.21
2022-10-17T02:02:38.021Z,20.22
2022-10-17T02:03:50.507Z,20.21
2022-10-17T02:05:03.548Z,20.19
2022-10-17T02:06:06.076Z,20.21
2022-10-17T02:07:19.540Z,20.21
2022-10-17T02:08:31.995Z,20.22
2022-10-17T02:09:35.646Z,20.19
2022-10-17T02:10:48.103Z,20.19
2022-10-17T02:12:01.581Z,20.18
2022-10-17T02:13:04.138Z,20.18
2022-10-17T02:14:17.559Z,20.17
2022-10-17T02:15:30.077Z,20.19
2022-10-17T02:16:43.602Z,20.19
2022-10-17T02:17:46.170Z,20.18
2022-10-17T02:18:59.533Z,20.19
2022-10-17T02:20:11.994Z,20.18
2022-10-17T02:21:15.664Z,20.17
2022-10-17T02:22:28.176Z,20.18
2022-10-17T02:23:41.543Z,20.18
2022-10-17T02:24:54.090Z,20.17
2022-10-17T02:25:57.543Z,20.18
2022-10-17T02:27:10.058Z,20.18
2022-10-17T02:28:33.587Z,20.18
2022-10-17T02:29:26.428Z,20.15
2022-10-17T02:30:39.533Z,20.18
2022-10-17T02:31:51.992Z,20.18
2022-10-17T02:33:37.285Z,19.77
2022-10-17T02:34:39.883Z,20.07
2022-10-17T02:35:53.228Z,20.17
2022-10-17T02:36:56.004Z,20.22
2022-10-17T02:38:09.219Z,20.22
2022-10-17T02:39:21.692Z,20.28
2022-10-17T02:40:25.195Z,20.27
2022-10-17T02:41:37.708Z,20.25
2022-10-17T02:42:51.241Z,20.27
2022-10-17T02:44:03.671Z,20.29
2022-10-17T02:45:07.174Z,20.27
2022-10-17T02:46:19.655Z,20.27
2022-10-17T02:47:32.733Z,20.27
2022-10-17T02:48:35.256Z,20.27
2022-10-17T02:49:48.688Z,20.27
2022-10-17T02:51:01.113Z,20.25
2022-10-17T02:52:14.242Z,20.24
2022-10-17T02:53:16.745Z,20.27
2022-10-17T02:54:30.196Z,20.28
2022-10-17T02:55:42.675Z,20.24
2022-10-17T02:56:46.223Z,20.24
2022-10-17T02:57:58.674Z,20.24
2022-10-17T02:59:11.731Z,20.22
2022-10-17T03:00:14.283Z,20.21
2022-10-17T03:01:27.794Z,20.22
2022-10-17T03:02:40.294Z,20.21
2022-10-17T03:03:53.699Z,20.22
2022-10-17T03:04:56.203Z,20.21
2022-10-17T03:06:09.210Z,20.21
2022-10-17T03:07:21.638Z,20.22
2022-10-17T03:08:24.739Z,20.21
2022-10-17T03:09:37.327Z,20.21
2022-10-17T03:10:50.714Z,20.19
2022-10-17T03:12:03.206Z,20.21
2022-10-17T03:13:06.700Z,20.19
2022-10-17T03:14:19.192Z,20.19
2022-10-17T03:15:32.229Z,20.21
2022-10-17T03:16:34.774Z,20.21
2022-10-17T03:17:48.180Z,20.19
2022-10-17T03:19:00.759Z,20.21
2022-10-17T03:20:14.249Z,20.22
2022-10-17T03:21:16.789Z,20.21
2022-10-17T03:22:30.513Z,20.21
2022-10-17T03:23:43.527Z,20.18
2022-10-17T03:24:46.716Z,20.19
2022-10-17T03:25:59.602Z,20.18
2022-10-17T03:27:42.700Z,20.19
2022-10-17T03:28:15.588Z,20.22
2022-10-17T03:29:48.713Z,20.19
2022-10-17T03:30:41.391Z,20.19
2022-10-17T03:31:43.937Z,20.27
2022-10-17T03:32:57.402Z,20.24
2022-10-17T03:34:10.453Z,20.28
2022-10-17T03:35:23.739Z,20.27
2022-10-17T03:36:26.227Z,20.27
2022-10-17T03:37:39.720Z,20.27
2022-10-17T03:38:52.152Z,20.27
2022-10-17T03:39:55.206Z,20.25
2022-10-17T03:41:07.640Z,20.25
2022-10-17T03:42:40.989Z,20.25
2022-10-17T03:43:33.608Z,20.24
2022-10-17T03:44:36.137Z,20.24
2022-10-17T03:45:49.221Z,20.28
2022-10-17T03:47:01.661Z,20.24
2022-10-17T03:48:05.615Z,20.25
2022-10-17T03:49:18.416Z,20.27
2022-10-17T03:50:31.730Z,20.25
2022-10-17T03:51:34.266Z,20.25
2022-10-17T03:52:47.240Z,20.27
2022-10-17T03:53:59.729Z,20.25
2022-10-17T03:55:22.706Z,20.24
2022-10-17T03:56:15.308Z,20.24
2022-10-17T03:57:29.115Z,20.24
2022-10-17T03:58:41.902Z,20.25
2022-10-17T03:59:45.212Z,20.24
2022-10-17T04:00:57.738Z,20.24
2022-10-17T04:02:11.247Z,20.22
2022-10-17T04:03:17.099Z,20.24
2022-10-17T04:04:30.721Z,20.24
2022-10-17T04:05:33.265Z,20.22
2022-10-17T04:06:46.733Z,20.22
2022-10-17T04:08:02.397Z,20.24
2022-10-17T04:09:08.261Z,20.21
2022-10-17T04:10:20.882Z,20.22
2022-10-17T04:11:24.239Z,20.22
2022-10-17T04:12:36.874Z,20.21
2022-10-17T04:13:50.443Z,20.22
2022-10-17T04:14:53.021Z,20.21
2022-10-17T04:16:06.247Z,20.19
2022-10-17T04:17:18.708Z,20.21
2022-10-17T04:18:31.793Z,20.19
2022-10-17T04:19:34.298Z,20.21
2022-10-17T04:20:47.757Z,20.21
2022-10-17T04:22:00.212Z,20.21
2022-10-17T04:23:03.783Z,20.22
2022-10-17T04:24:16.252Z,20.19
2022-10-17T04:25:33.408Z,20.21
2022-10-17T04:26:48.719Z,20.22
2022-10-17T04:27:52.241Z,20.19
2022-10-17T04:29:04.955Z,20.22
2022-10-17T04:30:08.254Z,20.24
2022-10-17T04:31:20.677Z,20.24
2022-10-17T04:32:23.736Z,20.24
2022-10-17T04:33:36.193Z,20.27
2022-10-17T04:34:49.231Z,20.27
2022-10-17T04:36:01.655Z,20.25
2022-10-17T04:37:04.767Z,20.22
2022-10-17T04:38:17.400Z,20.25
2022-10-17T04:39:30.933Z,20.27
2022-10-17T04:40:33.587Z,20.28
2022-10-17T04:41:46.768Z,20.25
2022-10-17T04:42:59.244Z,20.25
2022-10-17T04:44:03.251Z,20.27
2022-10-17T04:45:15.906Z,20.27
2022-10-17T04:46:29.287Z,20.27
2022-10-17T04:47:31.807Z,20.27
2022-10-17T04:48:45.303Z,20.25
2022-10-17T04:49:57.803Z,20.25
2022-10-17T04:51:11.248Z,20.27
2022-10-17T04:52:14.100Z,20.27
2022-10-17T04:53:27.269Z,20.27
2022-10-17T04:54:39.753Z,20.27
2022-10-17T04:55:43.411Z,20.28
2022-10-17T04:56:56.109Z,20.25
2022-10-17T04:58:09.257Z,20.27
2022-10-17T04:59:11.891Z,20.27
2022-10-17T05:00:25.250Z,20.25
2022-10-17T05:01:37.709Z,20.27
2022-10-17T05:02:50.765Z,20.25
2022-10-17T05:03:53.288Z,20.29
2022-10-17T05:05:06.785Z,20.27
2022-10-17T05:06:19.320Z,20.25
2022-10-17T05:07:22.767Z,20.31
2022-10-17T05:08:35.197Z,20.29
2022-10-17T05:09:48.412Z,20.28
2022-10-17T05:10:51.312Z,20.28
2022-10-17T05:12:06.751Z,20.28
2022-10-17T05:13:12.193Z,20.29
2022-10-17T05:14:25.276Z,20.32
2022-10-17T05:15:37.720Z,20.31
2022-10-17T05:16:50.767Z,20.32
2022-10-17T05:17:53.296Z,20.29
2022-10-17T05:19:06.295Z,20.32
2022-10-17T05:20:18.706Z,20.31
2022-10-17T05:21:22.810Z,20.32
2022-10-17T05:22:38.326Z,20.34
2022-10-17T05:23:44.803Z,20.34
2022-10-17T05:24:57.235Z,20.31
2022-10-17T05:26:10.285Z,20.34
2022-10-17T05:27:12.793Z,20.32
2022-10-17T05:28:25.781Z,20.34
2022-10-17T05:29:38.233Z,20.35
2022-10-17T05:30:41.288Z,20.34
2022-10-17T05:31:53.764Z,20.35
2022-10-17T05:33:07.307Z,20.35
2022-10-17T05:34:19.763Z,20.35
2022-10-17T05:35:23.290Z,20.42
2022-10-17T05:36:35.671Z,20.48
2022-10-17T05:37:48.779Z,20.55
2022-10-17T05:38:51.194Z,20.64
2022-10-17T05:40:04.289Z,20.75
2022-10-17T05:41:16.580Z,20.8
2022-10-17T05:42:29.963Z,20.83
2022-10-17T05:43:32.631Z,20.86
2022-10-17T05:44:45.772Z,20.92
2022-10-17T05:45:58.089Z,20.92
2022-10-17T05:47:11.282Z,20.96
2022-10-17T05:48:13.485Z,20.97
2022-10-17T05:49:33.403Z,21.01
2022-10-17T05:50:37.240Z,21.0
2022-10-17T05:51:50.287Z,21.03
2022-10-17T05:52:52.628Z,21.04
2022-10-17T05:54:05.915Z,21.07
2022-10-17T05:55:18.137Z,21.07
2022-10-17T05:56:21.277Z,21.09
2022-10-17T05:57:33.528Z,21.1
2022-10-17T05:58:51.825Z,21.13
2022-10-17T06:00:05.044Z,21.14
2022-10-17T06:01:10.640Z,21.11
2022-10-17T06:02:16.234Z,21.13
2022-10-17T06:03:28.662Z,21.14
2022-10-17T06:04:31.619Z,21.16
2022-10-17T06:06:59.482Z,21.14
2022-10-17T06:09:29.247Z,21.13
2022-10-17T06:10:21.663Z,21.14
2022-10-17T06:11:34.769Z,21.17
2022-10-17T06:12:46.988Z,21.19
2022-10-17T06:14:00.000Z,21.2
2022-10-17T06:15:02.381Z,21.2
2022-10-17T06:16:15.797Z,21.23
2022-10-17T06:17:27.999Z,21.21
2022-10-17T06:18:31.281Z,21.21
2022-10-17T06:19:43.497Z,21.24
2022-10-17T06:21:16.263Z,21.3
2022-10-17T06:22:08.702Z,21.36
2022-10-17T06:24:37.857Z,21.5
2022-10-17T06:25:30.260Z,21.55
2022-10-17T06:26:43.431Z,21.64
2022-10-17T06:27:55.651Z,21.72
2022-10-17T06:29:08.495Z,21.81
2022-10-17T06:30:10.834Z,21.9
2022-10-17T06:31:23.927Z,21.95
2022-10-17T06:32:36.129Z,21.99
2022-10-17T06:33:48.922Z,22.05
2022-10-17T06:34:51.173Z,22.08
2022-10-17T06:36:03.898Z,22.13
2022-10-17T06:37:16.063Z,22.19
2022-10-17T06:38:29.443Z,22.21
2022-10-17T06:39:31.704Z,22.26
2022-10-17T06:40:44.428Z,22.28
2022-10-17T06:41:56.599Z,22.3
2022-10-17T06:42:59.909Z,22.33
2022-10-17T06:44:12.096Z,22.38
2022-10-17T06:45:24.936Z,22.38
2022-10-17T06:46:37.097Z,22.41
2022-10-17T06:47:39.913Z,22.46
2022-10-17T06:48:52.021Z,22.48
2022-10-17T06:50:04.908Z,22.52
2022-10-17T06:51:07.124Z,22.53
2022-10-17T06:52:20.418Z,22.56
2022-10-17T06:53:32.496Z,22.59
2022-10-17T06:54:45.442Z,22.64
2022-10-17T06:55:47.720Z,22.64
2022-10-17T06:57:00.406Z,22.67
2022-10-17T06:58:12.453Z,22.69
2022-10-17T06:59:25.406Z,22.73
2022-10-17T07:00:27.664Z,22.76
2022-10-17T07:01:43.081Z,22.74
2022-10-17T07:02:48.425Z,22.8
2022-10-17T07:04:01.430Z,22.8
2022-10-17T07:05:13.649Z,22.83
2022-10-17T07:06:16.434Z,22.84
2022-10-17T07:07:28.748Z,22.87
2022-10-17T07:08:41.918Z,22.87
2022-10-17T07:09:53.937Z,22.9
2022-10-17T07:10:56.929Z,22.91
2022-10-17T07:12:09.008Z,22.9
2022-10-17T07:13:21.993Z,22.93
2022-10-17T07:14:24.152Z,22.93
2022-10-17T07:15:37.061Z,22.97
2022-10-17T07:16:49.352Z,22.97
2022-10-17T07:18:02.441Z,22.96
2022-10-17T07:19:04.662Z,23.0
2022-10-17T07:20:17.451Z,23.03
2022-10-17T07:21:29.523Z,23.04
2022-10-17T07:22:42.429Z,23.03
2022-10-17T07:23:44.652Z,23.07
2022-10-17T07:24:57.455Z,23.08
2022-10-17T07:26:09.587Z,23.08
2022-10-17T07:27:22.603Z,23.1
2022-10-17T07:28:24.800Z,23.14
2022-10-17T07:29:37.914Z,23.15
2022-10-17T07:30:52.160Z,23.2
2022-10-17T07:31:57.437Z,23.18
2022-10-17T07:33:09.479Z,23.2
2022-10-17T07:34:12.433Z,23.23
2022-10-17T07:35:25.316Z,23.23
2022-10-17T07:36:37.945Z,23.27
2022-10-17T07:37:50.009Z,23.28
2022-10-17T07:38:53.469Z,23.31
2022-10-17T07:40:05.526Z,23.3
2022-10-17T07:41:20.920Z,23.32
2022-10-17T07:42:24.247Z,23.32
2022-10-17T07:43:36.943Z,23.38
2022-10-17T07:44:48.979Z,23.37
2022-10-17T07:45:51.934Z,23.41
2022-10-17T07:47:03.955Z,23.42
2022-10-17T07:48:16.942Z,23.45
2022-10-17T07:49:19.064Z,23.47
2022-10-17T07:50:31.937Z,23.45
2022-10-17T07:51:44.030Z,23.49
2022-10-17T07:53:06.938Z,23.49
2022-10-17T07:53:59.270Z,23.51
2022-10-17T07:55:11.931Z,23.54
2022-10-17T07:56:23.890Z,23.51
2022-10-17T07:57:36.441Z,23.54
2022-10-17T07:58:38.545Z,23.54
2022-10-17T07:59:51.497Z,23.56
2022-10-17T08:01:03.562Z,23.59
2022-10-17T08:02:16.443Z,23.59
2022-10-17T08:03:18.599Z,23.61
2022-10-17T08:04:31.464Z,23.62
2022-10-17T08:05:43.474Z,23.62
2022-10-17T08:07:05.390Z,23.64
2022-10-17T08:08:04.188Z,23.65
2022-10-17T08:09:16.960Z,23.65
2022-10-17T08:10:19.198Z,23.66
2022-10-17T08:11:31.967Z,23.68
2022-10-17T08:12:43.997Z,23.69
2022-10-17T08:13:46.968Z,23.68
2022-10-17T08:14:58.977Z,23.69
2022-10-17T08:16:11.949Z,23.69
2022-10-17T08:17:23.975Z,23.69
2022-10-17T08:18:26.953Z,23.69
2022-10-17T08:19:38.943Z,23.74
2022-10-17T08:20:54.541Z,23.71
2022-10-17T08:21:57.815Z,23.72
2022-10-17T08:23:10.458Z,23.74
2022-10-17T08:24:22.409Z,23.74
2022-10-17T08:25:35.066Z,23.74
2022-10-17T08:26:40.594Z,23.74
2022-10-17T08:27:46.470Z,23.74
2022-10-17T08:28:58.491Z,23.75
2022-10-17T08:30:11.475Z,23.76
2022-10-17T08:31:23.539Z,23.76
2022-10-17T08:32:26.646Z,23.79
2022-10-17T08:33:38.743Z,23.79
2022-10-17T08:34:51.455Z,23.79
2022-10-17T08:35:53.541Z,23.82
2022-10-17T08:37:06.644Z,23.82
2022-10-17T08:38:20.959Z,23.83
2022-10-17T08:39:24.981Z,23.83
2022-10-17T08:40:37.010Z,23.86
2022-10-17T08:41:49.971Z,23.88
2022-10-17T08:42:52.076Z,23.9
2022-10-17T08:44:05.965Z,23.92
2022-10-17T08:45:17.973Z,23.92
2022-10-17T08:46:30.957Z,23.95
2022-10-17T08:47:33.288Z,23.93
2022-10-17T08:48:46.762Z,23.96
2022-10-17T08:49:58.885Z,23.93
2022-10-17T08:51:01.986Z,23.95
2022-10-17T08:52:13.978Z,23.92
2022-10-17T08:53:26.969Z,23.95
2022-10-17T08:54:38.982Z,23.93
2022-10-17T08:55:44.601Z,23.95
2022-10-17T08:56:57.658Z,23.98
2022-10-17T08:58:00.465Z,23.96
2022-10-17T08:59:12.461Z,23.96
2022-10-17T09:00:25.464Z,23.95
2022-10-17T09:01:37.371Z,23.95
2022-10-17T09:02:39.982Z,23.93
2022-10-17T09:03:51.795Z,23.95
2022-10-17T09:05:04.618Z,23.93
2022-10-17T09:06:16.463Z,23.93
2022-10-17T09:07:18.975Z,23.95
2022-10-17T09:08:30.949Z,23.93
2022-10-17T09:09:43.493Z,23.96
2022-10-17T09:10:55.479Z,23.95
2022-10-17T09:11:58.506Z,23.95
2022-10-17T09:13:10.498Z,23.95
2022-10-17T09:14:23.504Z,23.96
2022-10-17T09:15:35.497Z,23.96
2022-10-17T09:16:38.508Z,23.98
2022-10-17T09:17:50.436Z,23.95
2022-10-17T09:19:02.980Z,23.98
2022-10-17T09:20:14.970Z,23.99
2022-10-17T09:21:18.026Z,24.0
2022-10-17T09:22:29.997Z,23.99
2022-10-17T09:23:42.977Z,23.95
2022-10-17T09:24:55.048Z,23.96
2022-10-17T09:25:57.987Z,23.98
2022-10-17T09:27:10.014Z,24.0
2022-10-17T09:28:23.021Z,23.98
2022-10-17T09:29:25.237Z,23.99
2022-10-17T09:30:45.252Z,23.98
2022-10-17T09:32:07.663Z,23.98
2022-10-17T09:33:00.490Z,23.96
2022-10-17T09:34:12.501Z,24.02
2022-10-17T09:35:15.477Z,24.0
2022-10-17T09:36:27.406Z,24.02
2022-10-17T09:37:39.990Z,24.0
2022-10-17T09:38:51.942Z,23.99
2022-10-17T09:39:54.990Z,24.03
2022-10-17T09:41:25.603Z,24.03
2022-10-17T09:42:22.964Z,24.05
2022-10-17T09:43:25.109Z,24.05
2022-10-17T09:44:37.979Z,24.03
2022-10-17T09:45:49.998Z,24.03
2022-10-17T09:47:02.998Z,24.03
2022-10-17T09:48:05.099Z,24.03
2022-10-17T09:49:17.986Z,24.02
2022-10-17T09:50:29.992Z,24.03
2022-10-17T09:51:42.983Z,24.05
2022-10-17T09:52:45.136Z,24.03
2022-10-17T09:53:58.513Z,24.05
2022-10-17T09:55:10.701Z,24.03
2022-10-17T09:56:13.484Z,24.05
2022-10-17T09:57:25.471Z,24.05
2022-10-17T09:58:38.012Z,24.09
2022-10-17T09:59:49.950Z,24.07
2022-10-17T10:00:53.033Z,24.09
2022-10-17T10:02:15.002Z,24.07
2022-10-17T10:03:18.006Z,24.06
2022-10-17T10:04:30.553Z,24.09
2022-10-17T10:05:40.032Z,24.09
2022-10-17T10:06:42.214Z,24.07
2022-10-17T10:07:55.012Z,24.1
2022-10-17T10:09:07.081Z,24.1
2022-10-17T10:10:19.998Z,24.14
2022-10-17T10:11:22.059Z,24.13
2022-10-17T10:12:34.982Z,24.1
2022-10-17T10:13:46.961Z,24.13
2022-10-17T10:14:59.990Z,24.11
2022-10-17T10:16:02.128Z,24.09
2022-10-17T10:17:15.015Z,24.06
2022-10-17T10:18:27.145Z,24.06
2022-10-17T10:19:30.495Z,24.05
2022-10-17T10:20:42.584Z,24.05
2022-10-17T10:21:55.518Z,24.03
2022-10-17T10:23:07.521Z,24.0
2022-10-17T10:24:10.508Z,24.02
2022-10-17T10:25:22.509Z,23.99
2022-10-17T10:26:35.490Z,23.98
2022-10-17T10:27:47.424Z,23.96
2022-10-17T10:28:50.583Z,23.96
2022-10-17T10:30:02.679Z,23.93
2022-10-17T10:31:15.517Z,23.93
2022-10-17T10:32:17.593Z,23.95
2022-10-17T10:33:30.514Z,23.9
2022-10-17T10:34:42.772Z,23.92
2022-10-17T10:35:55.486Z,23.89
2022-10-17T10:36:57.659Z,23.89
2022-10-17T10:38:10.514Z,23.88
2022-10-17T10:39:22.530Z,23.88
2022-10-17T10:40:35.494Z,23.88
2022-10-17T10:41:37.575Z,23.85
2022-10-17T10:42:50.508Z,23.82
2022-10-17T10:44:02.449Z,23.83
2022-10-17T10:45:19.087Z,23.83
2022-10-17T10:46:22.005Z,23.85
2022-10-17T10:47:35.010Z,23.86
2022-10-17T10:48:37.151Z,23.86
2022-10-17T10:49:50.011Z,23.86
2022-10-17T10:51:01.962Z,23.85
2022-10-17T10:52:15.006Z,23.82
2022-10-17T10:53:17.168Z,23.85
2022-10-17T10:54:30.101Z,23.88
2022-10-17T10:55:42.160Z,23.88
2022-10-17T10:56:46.347Z,23.86
2022-10-17T10:57:58.997Z,23.88
2022-10-17T10:59:12.023Z,23.88
2022-10-17T11:00:14.129Z,23.86
2022-10-17T11:01:27.012Z,23.89
2022-10-17T11:02:39.003Z,23.88
2022-10-17T11:03:51.999Z,23.86
2022-10-17T11:04:54.234Z,23.88
2022-10-17T11:06:07.037Z,23.86
2022-10-17T11:07:19.028Z,23.85
2022-10-17T11:08:32.021Z,23.86
2022-10-17T11:09:34.178Z,23.83
2022-10-17T11:10:47.024Z,23.83
2022-10-17T11:11:59.417Z,23.85
2022-10-17T11:13:02.537Z,23.83
2022-10-17T11:14:14.670Z,23.85
2022-10-17T11:15:27.811Z,23.83
2022-10-17T11:16:42.365Z,23.81
2022-10-17T11:17:45.818Z,23.83
2022-10-17T11:18:57.912Z,23.82
2022-10-17T11:20:10.530Z,23.81
2022-10-17T11:21:12.721Z,23.81
2022-10-17T11:22:28.285Z,23.82
2022-10-17T11:23:31.526Z,23.82
2022-10-17T11:24:44.559Z,23.79
2022-10-17T11:25:56.521Z,23.85
2022-10-17T11:27:09.540Z,23.82
2022-10-17T11:28:11.711Z,23.81
2022-10-17T11:29:24.522Z,23.76
2022-10-17T11:30:36.572Z,23.78
2022-10-17T11:31:49.552Z,23.81
2022-10-17T11:32:51.859Z,23.79
2022-10-17T11:34:04.538Z,23.79
2022-10-17T11:35:16.551Z,23.78
2022-10-17T11:36:29.545Z,23.78
2022-10-17T11:37:31.739Z,23.79
2022-10-17T11:38:44.502Z,23.79
2022-10-17T11:39:56.517Z,23.82
2022-10-17T11:40:59.514Z,23.83
2022-10-17T11:42:11.468Z,23.83
2022-10-17T11:43:24.109Z,23.82
2022-10-17T11:44:36.184Z,23.83
2022-10-17T11:45:39.047Z,23.88
2022-10-17T11:46:51.053Z,23.86
2022-10-17T11:48:04.015Z,23.86
2022-10-17T11:49:20.210Z,23.86
2022-10-17T11:52:02.405Z,23.9
2022-10-17T11:52:55.939Z,23.9
2022-10-17T11:53:49.283Z,23.93
2022-10-17T11:55:02.036Z,23.95
2022-10-17T11:56:14.026Z,23.99
2022-10-17T11:57:26.542Z,23.99
2022-10-17T11:59:41.015Z,23.98
2022-10-17T12:00:53.022Z,23.99
2022-10-17T12:02:05.560Z,23.98
2022-10-17T12:03:07.719Z,23.89
2022-10-17T12:04:20.604Z,23.82
2022-10-17T12:05:32.714Z,23.71
2022-10-17T12:06:45.545Z,23.61
2022-10-17T12:08:07.796Z,23.51
2022-10-17T12:09:01.018Z,23.41
2022-10-17T12:10:13.091Z,23.32
2022-10-17T12:11:16.092Z,23.21
2022-10-17T12:12:57.813Z,23.13
2022-10-17T12:13:41.065Z,23.05
2022-10-17T12:15:03.005Z,22.96
2022-10-17T12:15:56.186Z,22.88
2022-10-17T12:17:08.364Z,22.87
2022-10-17T12:18:21.033Z,22.84
2022-10-17T12:19:33.115Z,22.81
2022-10-17T12:20:36.028Z,22.77
2022-10-17T12:21:48.121Z,22.7
2022-10-17T12:23:01.024Z,22.7
2022-10-17T12:24:18.118Z,22.66
2022-10-17T12:25:22.043Z,22.64
2022-10-17T12:26:24.348Z,22.66
2022-10-17T12:27:37.539Z,22.62
2022-10-17T12:28:49.826Z,22.6
2022-10-17T12:30:03.060Z,22.59
2022-10-17T12:31:05.246Z,22.59
2022-10-17T12:32:18.180Z,22.62
2022-10-17T12:33:30.342Z,22.63
2022-10-17T12:35:45.045Z,22.67
2022-10-17T12:36:58.046Z,22.72
2022-10-17T12:38:10.101Z,22.69
2022-10-17T12:39:23.079Z,22.7
2022-10-17T12:40:25.307Z,22.7
2022-10-17T12:41:38.119Z,22.74
2022-10-17T12:42:50.333Z,22.74
2022-10-17T12:44:03.025Z,22.74
2022-10-17T12:45:05.210Z,22.72
2022-10-17T12:46:18.070Z,22.73
2022-10-17T12:47:30.694Z,22.73
2022-10-17T12:48:34.602Z,22.72
2022-10-17T12:49:46.728Z,22.72
2022-10-17T12:51:17.714Z,22.67
2022-10-17T12:52:06.601Z,22.7
2022-10-17T12:53:19.415Z,22.69
2022-10-17T12:54:37.952Z,22.66
2022-10-17T12:55:40.322Z,22.64
2022-10-17T12:56:53.073Z,22.66
2022-10-17T12:57:55.332Z,22.63
2022-10-17T12:59:08.042Z,22.57
2022-10-17T13:00:20.161Z,22.59
2022-10-17T13:01:24.637Z,22.6
2022-10-17T13:02:37.076Z,22.59
2022-10-17T13:03:50.462Z,22.62
2022-10-17T13:04:53.608Z,22.67
2022-10-17T13:06:06.586Z,22.74
2022-10-17T13:07:18.583Z,22.81
2022-10-17T13:08:31.531Z,22.86
2022-10-17T13:09:33.691Z,22.96
2022-10-17T13:10:49.122Z,23.0
2022-10-17T13:11:53.976Z,23.07
2022-10-17T13:13:07.066Z,23.14
2022-10-17T13:14:19.142Z,23.21
2022-10-17T13:15:32.052Z,23.25
2022-10-17T13:16:34.249Z,23.32
2022-10-17T13:17:47.072Z,23.39
2022-10-17T13:18:59.416Z,23.45
2022-10-17T13:20:02.557Z,23.48
2022-10-17T13:21:14.580Z,23.52
2022-10-17T13:22:27.963Z,23.58
2022-10-17T13:23:40.413Z,23.59
2022-10-17T13:24:43.584Z,23.64
2022-10-17T13:25:55.609Z,23.66
2022-10-17T13:27:08.592Z,23.69
2022-10-17T13:28:30.532Z,23.74
2022-10-17T13:29:23.582Z,23.76
2022-10-17T13:30:35.633Z,23.75
2022-10-17T13:31:48.588Z,23.74
2022-10-17T13:32:50.739Z,23.69
2022-10-17T13:34:03.572Z,23.65
2022-10-17T13:35:15.514Z,23.62
2022-10-17T13:36:28.077Z,23.61
2022-10-17T13:37:30.250Z,23.58
2022-10-17T13:38:43.056Z,23.55
2022-10-17T13:39:56.754Z,23.54
2022-10-17T13:41:23.264Z,23.54
2022-10-17T13:42:13.150Z,23.55
2022-10-17T13:43:25.127Z,23.52
2022-10-17T13:44:48.084Z,23.52
2022-10-17T13:45:40.524Z,23.51
2022-10-17T13:46:53.142Z,23.49
2022-10-17T13:48:06.155Z,23.52
2022-10-17T13:49:09.078Z,23.54
2022-10-17T13:50:43.134Z,23.56
2022-10-17T13:51:36.570Z,23.52
2022-10-17T13:52:38.663Z,23.52
2022-10-17T13:53:51.569Z,23.54
2022-10-17T13:55:03.590Z,23.54
2022-10-17T13:56:27.743Z,23.55
2022-10-17T13:57:21.043Z,23.55
2022-10-17T13:58:34.177Z,23.58
2022-10-17T13:59:46.188Z,23.56
2022-10-17T14:00:49.127Z,23.58
2022-10-17T14:02:01.233Z,23.49
2022-10-17T14:03:14.057Z,23.51
2022-10-17T14:04:56.580Z,23.48
2022-10-17T14:06:05.108Z,23.47
2022-10-17T14:06:37.736Z,23.47
2022-10-17T14:08:09.307Z,23.47
2022-10-17T14:09:03.478Z,23.45
2022-10-17T14:11:15.565Z,23.45
2022-10-17T14:11:48.392Z,23.44
2022-10-17T14:12:30.848Z,23.47
2022-10-17T14:13:43.568Z,23.45
2022-10-17T14:15:08.842Z,23.47
2022-10-17T14:16:03.065Z,23.49
2022-10-17T14:17:05.239Z,23.55
2022-10-17T14:18:18.084Z,23.56
2022-10-17T14:19:30.037Z,23.61
2022-10-17T14:21:28.727Z,23.61
2022-10-17T14:21:59.743Z,23.64
2022-10-17T14:23:22.046Z,23.65
2022-10-17T14:24:06.368Z,23.69
2022-10-17T14:25:18.376Z,23.72
2022-10-17T14:26:30.860Z,23.74
2022-10-17T14:27:42.864Z,23.78
2022-10-17T14:28:45.954Z,23.78
2022-10-17T14:30:07.991Z,23.81
2022-10-17T14:31:10.845Z,23.81
2022-10-17T14:32:13.313Z,23.85
2022-10-17T14:33:25.851Z,23.83
2022-10-17T14:34:37.896Z,23.85
2022-10-17T14:35:51.002Z,23.85
2022-10-17T14:36:53.376Z,23.86
2022-10-17T14:38:06.356Z,23.86
2022-10-17T14:39:18.343Z,23.86
2022-10-17T14:40:30.893Z,23.86
2022-10-17T14:41:43.242Z,23.88
2022-10-17T14:42:46.887Z,23.89
2022-10-17T14:43:58.875Z,23.9
2022-10-17T14:45:01.890Z,23.89
2022-10-17T14:46:13.874Z,23.9
2022-10-17T14:47:42.613Z,23.9
2022-10-17T14:48:35.965Z,23.93
2022-10-17T14:49:48.894Z,23.92
2022-10-17T14:50:50.967Z,23.93
2022-10-17T14:52:07.789Z,23.93
2022-10-17T14:53:10.312Z,23.95
2022-10-17T14:54:22.976Z,23.92
2022-10-17T14:55:34.960Z,23.93
2022-10-17T14:56:47.884Z,23.93
2022-10-17T14:57:49.965Z,23.98
2022-10-17T14:59:02.850Z,23.96
2022-10-17T15:00:14.847Z,23.96
2022-10-17T15:01:27.386Z,23.99
2022-10-17T15:02:29.855Z,23.98
2022-10-17T15:03:42.969Z,23.98
2022-10-17T15:04:55.042Z,23.95
2022-10-17T15:06:07.864Z,23.96
2022-10-17T15:07:10.022Z,23.98
2022-10-17T15:08:22.911Z,24.0
2022-10-17T15:09:34.902Z,23.99